Time;durP1;ratioP1;P1;durP2;ratioP2;P2;SDS_P1;SDS_P2;PMS_P1;PMS_P2;Temp;Humidity;BMP_temperature;BMP_pressure;BME280_temperature;BME280_humidity;BME280_pressure;Samples;Min_cycle;Max_cycle;Signal;HPM_P1;HPM_P2
2022/03/16 00:01:16;;;;;;;19.88;14.38;;;10.80;92.50;;;;;;5014755;28;20560;-78
2022/03/16 00:03:42;;;;;;;20.52;14.55;;;10.80;92.50;;;;;;5014122;28;20358;-78
2022/03/16 00:06:08;;;;;;;19.45;14.23;;;10.80;92.40;;;;;;5014181;28;20116;-77
2022/03/16 00:08:33;;;;;;;19.70;14.38;;;10.90;92.40;;;;;;5014445;28;20028;-77
2022/03/16 00:10:59;;;;;;;22.83;15.88;;;10.90;92.20;;;;;;5014537;28;20115;-77
2022/03/16 00:13:25;;;;;;;23.48;16.90;;;10.90;92.30;;;;;;5014039;28;20034;-78
2022/03/16 00:15:50;;;;;;;21.40;15.02;;;10.90;92.30;;;;;;5014300;28;20025;-78
2022/03/16 00:18:19;;;;;;;22.85;15.40;;;10.80;92.30;;;;;;5014183;28;20069;-77
2022/03/16 00:20:46;;;;;;;20.58;15.32;;;10.70;92.40;;;;;;5014379;28;20022;-77
2022/03/16 00:23:12;;;;;;;24.63;16.45;;;10.70;92.50;;;;;;5014092;28;20049;-77
2022/03/16 00:25:37;;;;;;;20.27;15.98;;;10.70;92.50;;;;;;5013992;28;20499;-77
2022/03/16 00:28:03;;;;;;;23.42;16.27;;;10.60;92.60;;;;;;5014371;28;20058;-77
2022/03/16 00:30:29;;;;;;;20.88;15.65;;;10.50;93.00;;;;;;5013983;28;20511;-77
2022/03/16 00:32:55;;;;;;;21.77;15.45;;;10.50;93.10;;;;;;5014146;28;20034;-77
2022/03/16 00:35:20;;;;;;;23.10;16.10;;;10.50;93.30;;;;;;5013834;28;20033;-77
2022/03/16 00:37:46;;;;;;;24.13;15.63;;;10.50;93.40;;;;;;5013853;28;20022;-76
2022/03/16 00:40:12;;;;;;;19.45;15.20;;;10.40;93.30;;;;;;5014018;28;20022;-77
2022/03/16 00:42:38;;;;;;;21.98;15.30;;;10.40;93.30;;;;;;5013715;28;20030;-76
2022/03/16 00:45:15;;;;;;;22.50;16.40;;;10.40;93.20;;;;;;5013536;28;20030;-76
2022/03/16 00:47:41;;;;;;;27.08;16.10;;;10.50;93.40;;;;;;5013692;28;20018;-76
2022/03/16 00:50:07;;;;;;;22.23;15.68;;;10.40;93.30;;;;;;5013410;28;20029;-77
2022/03/16 00:52:32;;;;;;;25.52;17.10;;;10.40;93.30;;;;;;5013471;28;20124;-77
2022/03/16 00:54:58;;;;;;;23.92;16.67;;;10.50;93.30;;;;;;5013702;28;20103;-77
2022/03/16 00:57:24;;;;;;;23.00;16.63;;;10.50;93.30;;;;;;5013825;28;20388;-77
2022/03/16 00:59:49;;;;;;;23.20;17.10;;;10.50;93.30;;;;;;5013738;28;20445;-77
2022/03/16 01:02:15;;;;;;;23.92;17.80;;;10.50;93.30;;;;;;5013728;28;20025;-77
2022/03/16 01:04:41;;;;;;;24.10;18.60;;;10.40;93.30;;;;;;5013074;28;20029;-77
2022/03/16 01:07:07;;;;;;;27.67;17.80;;;10.40;93.50;;;;;;5013476;28;20140;-77
2022/03/16 01:09:33;;;;;;;24.33;18.55;;;10.40;93.70;;;;;;5013682;28;20531;-77
2022/03/16 01:11:58;;;;;;;23.58;18.25;;;10.30;93.70;;;;;;5013664;28;20076;-77
2022/03/16 01:14:24;;;;;;;24.92;18.27;;;10.30;93.80;;;;;;5012853;28;20377;-76
2022/03/16 01:16:49;;;;;;;28.00;19.58;;;10.30;93.90;;;;;;5013062;28;20121;-76
2022/03/16 01:19:15;;;;;;;26.50;18.63;;;10.20;93.90;;;;;;5013637;28;20037;-76
2022/03/16 01:21:42;;;;;;;27.17;20.33;;;10.20;93.90;;;;;;5013510;28;20018;-76
2022/03/16 01:24:08;;;;;;;26.80;20.17;;;10.10;94.10;;;;;;5013286;28;20392;-76
2022/03/16 01:26:43;;;;;;;26.38;20.05;;;10.10;94.30;;;;;;5013050;28;20018;-76
2022/03/16 01:29:08;;;;;;;31.15;20.15;;;10.00;94.60;;;;;;5013593;28;20432;-76
2022/03/16 01:31:34;;;;;;;28.50;19.98;;;10.00;94.60;;;;;;5013458;28;20101;-76
2022/03/16 01:34:00;;;;;;;28.73;20.52;;;9.90;94.60;;;;;;5013255;28;20117;-76
2022/03/16 01:36:26;;;;;;;30.17;20.92;;;9.90;94.80;;;;;;5013223;28;20103;-76
2022/03/16 01:38:51;;;;;;;28.70;22.35;;;9.90;95.00;;;;;;5013422;28;20487;-76
2022/03/16 01:41:17;;;;;;;33.50;23.20;;;9.80;95.10;;;;;;5013272;28;20030;-76
2022/03/16 01:43:43;;;;;;;29.90;22.38;;;9.80;95.40;;;;;;5013408;28;20507;-76
2022/03/16 01:46:08;;;;;;;27.98;20.33;;;9.70;95.60;;;;;;5012864;28;20109;-76
2022/03/16 01:48:34;;;;;;;29.05;20.63;;;9.70;95.60;;;;;;5013028;28;20385;-76
2022/03/16 01:51:00;;;;;;;28.48;21.05;;;9.70;95.60;;;;;;5013353;28;20076;-76
2022/03/16 01:53:26;;;;;;;28.35;21.33;;;9.60;95.60;;;;;;5013230;28;20492;-76
2022/03/16 01:55:52;;;;;;;28.27;20.25;;;9.60;95.70;;;;;;5013090;28;20477;-76
2022/03/16 01:58:18;;;;;;;29.30;20.15;;;9.70;95.60;;;;;;5013021;28;20030;-76
2022/03/16 02:00:44;;;;;;;27.88;20.83;;;9.70;95.50;;;;;;5012821;28;20034;-76
2022/03/16 02:03:10;;;;;;;27.80;20.30;;;9.70;95.40;;;;;;5013054;28;20044;-76
2022/03/16 02:05:36;;;;;;;28.27;20.70;;;9.60;95.70;;;;;;5013081;28;20022;-76
2022/03/16 02:08:04;;;;;;;28.45;21.05;;;9.60;95.70;;;;;;5013126;28;20053;-76
2022/03/16 02:10:31;;;;;;;30.63;22.90;;;9.60;95.60;;;;;;5012792;28;20029;-76
2022/03/16 02:12:57;;;;;;;29.98;22.65;;;9.50;95.70;;;;;;5013050;28;20037;-76
2022/03/16 02:15:23;;;;;;;30.27;22.00;;;9.50;95.90;;;;;;5014345;28;20026;-76
2022/03/16 02:17:50;;;;;;;29.65;21.85;;;9.40;96.00;;;;;;5016273;28;20033;-75
2022/03/16 02:20:17;;;;;;;28.50;21.15;;;9.40;96.00;;;;;;5016567;28;20025;-75
2022/03/16 02:23:10;;;;;;;28.23;20.50;;;9.40;96.10;;;;;;5016264;28;20034;-76
2022/03/16 02:25:48;;;;;;;29.60;21.25;;;9.40;96.20;;;;;;5008083;28;20034;-75
2022/03/16 02:28:14;;;;;;;27.95;20.75;;;9.30;96.40;;;;;;5016085;28;20088;-75
2022/03/16 02:30:40;;;;;;;28.10;20.13;;;9.30;96.10;;;;;;5016012;28;20105;-75
2022/03/16 02:33:05;;;;;;;28.45;21.42;;;9.30;96.10;;;;;;5015731;28;20030;-75
2022/03/16 02:35:31;;;;;;;28.85;21.75;;;9.30;96.20;;;;;;5016008;28;20018;-75
2022/03/16 02:37:58;;;;;;;29.60;22.13;;;9.20;96.30;;;;;;5016166;28;20034;-75
2022/03/16 02:40:24;;;;;;;27.15;20.73;;;9.10;96.50;;;;;;5016217;28;20033;-75
2022/03/16 02:42:50;;;;;;;29.15;21.70;;;9.10;96.60;;;;;;5015577;28;20041;-75
2022/03/16 02:45:17;;;;;;;26.17;21.00;;;9.10;96.50;;;;;;5016031;28;20037;-76
2022/03/16 02:47:43;;;;;;;29.58;20.58;;;9.10;96.60;;;;;;5016071;28;20026;-76
2022/03/16 02:50:10;;;;;;;29.15;21.50;;;9.10;96.70;;;;;;5015435;28;20486;-76
2022/03/16 02:52:35;;;;;;;27.00;21.23;;;9.10;96.60;;;;;;5015633;28;20048;-76
2022/03/16 02:55:01;;;;;;;32.42;21.83;;;9.10;96.60;;;;;;5015795;28;20046;-76
2022/03/16 02:57:40;;;;;;;27.83;20.83;;;9.10;96.50;;;;;;5015857;28;20123;-76
2022/03/16 03:00:08;;;;;;;29.02;21.13;;;9.10;96.50;;;;;;5015679;28;20072;-75
2022/03/16 03:02:35;;;;;;;32.28;22.20;;;9.20;96.50;;;;;;5015550;28;20034;-76
2022/03/16 03:05:01;;;;;;;32.97;23.17;;;9.10;96.30;;;;;;5015452;28;20030;-75
2022/03/16 03:07:27;;;;;;;30.77;22.08;;;9.10;96.30;;;;;;5015216;28;20456;-75
2022/03/16 03:09:52;;;;;;;28.63;21.63;;;9.00;96.40;;;;;;5015908;28;20080;-75
2022/03/16 03:12:18;;;;;;;33.60;24.80;;;9.00;96.40;;;;;;5015628;28;20026;-75
2022/03/16 03:14:43;;;;;;;31.92;24.55;;;8.90;96.60;;;;;;5015531;28;20541;-75
2022/03/16 03:17:09;;;;;;;32.72;24.42;;;8.70;96.90;;;;;;5015193;28;20048;-75
2022/03/16 03:19:38;;;;;;;31.40;23.02;;;8.80;97.00;;;;;;5015390;28;20487;-75
2022/03/16 03:22:06;;;;;;;33.75;23.80;;;8.90;97.20;;;;;;5015054;28;20061;-76
2022/03/16 03:24:33;;;;;;;32.22;24.50;;;8.90;97.20;;;;;;5015213;28;20083;-75
2022/03/16 03:26:58;;;;;;;33.25;23.60;;;8.90;97.20;;;;;;5013877;28;20033;-75
2022/03/16 03:29:24;;;;;;;34.45;24.98;;;8.90;97.20;;;;;;5014749;28;20026;-76
2022/03/16 03:31:50;;;;;;;35.33;24.83;;;8.90;97.20;;;;;;5014762;28;20033;-76
2022/03/16 03:34:16;;;;;;;31.85;24.00;;;8.90;97.20;;;;;;5015198;28;20113;-76
2022/03/16 03:36:44;;;;;;;30.60;23.40;;;8.90;97.00;;;;;;5015089;28;20022;-76
2022/03/16 03:39:10;;;;;;;31.38;22.30;;;8.90;96.90;;;;;;5015015;28;20026;-76
2022/03/16 03:41:38;;;;;;;31.88;23.58;;;9.00;97.00;;;;;;5014890;28;20564;-77
2022/03/16 03:44:07;;;;;;;30.90;22.73;;;9.00;97.10;;;;;;5014718;28;20021;-77
2022/03/16 03:46:32;;;;;;;34.90;23.98;;;9.00;97.00;;;;;;5014714;28;20030;-77
2022/03/16 03:48:58;;;;;;;30.95;24.40;;;9.00;97.10;;;;;;5014829;28;20024;-77
2022/03/16 03:51:24;;;;;;;33.63;23.58;;;8.90;96.90;;;;;;5014446;28;20088;-77
2022/03/16 03:53:49;;;;;;;34.67;23.65;;;8.90;96.90;;;;;;5014629;28;20037;-77
2022/03/16 03:56:15;;;;;;;29.42;23.10;;;8.90;96.90;;;;;;5014512;28;20377;-77
2022/03/16 03:58:41;;;;;;;31.33;24.05;;;8.90;96.90;;;;;;5014660;28;20140;-77
2022/03/16 04:01:07;;;;;;;30.48;22.92;;;8.90;97.00;;;;;;5014710;28;20042;-77
2022/03/16 04:03:32;;;;;;;30.50;23.25;;;8.80;97.00;;;;;;5014457;28;20469;-77
2022/03/16 04:06:01;;;;;;;28.90;21.65;;;8.80;97.10;;;;;;5013834;28;20042;-78
2022/03/16 04:08:27;;;;;;;30.90;22.45;;;8.70;97.20;;;;;;5014343;28;20547;-76
2022/03/16 04:10:52;;;;;;;30.67;23.58;;;8.70;97.20;;;;;;5014437;28;20112;-77
2022/03/16 04:13:18;;;;;;;29.48;22.58;;;8.70;97.30;;;;;;5014106;28;20044;-76
2022/03/16 04:15:44;;;;;;;29.80;22.83;;;8.60;97.50;;;;;;5014237;28;20029;-76
2022/03/16 04:18:09;;;;;;;32.83;24.52;;;8.60;97.40;;;;;;5013860;28;20501;-76
2022/03/16 04:20:35;;;;;;;28.67;22.08;;;8.60;97.50;;;;;;5014064;28;20022;-77
2022/03/16 04:23:00;;;;;;;33.30;24.08;;;8.60;97.50;;;;;;5014049;28;20022;-77
2022/03/16 04:25:26;;;;;;;32.25;23.15;;;8.60;97.60;;;;;;5013979;28;20056;-76
2022/03/16 04:27:51;;;;;;;31.13;23.00;;;8.60;97.60;;;;;;5013291;28;20081;-77
2022/03/16 04:30:17;;;;;;;31.80;23.38;;;8.50;97.60;;;;;;5014014;28;20045;-76
2022/03/16 04:32:43;;;;;;;31.67;22.67;;;8.50;97.60;;;;;;5013796;28;20080;-77
2022/03/16 04:35:09;;;;;;;31.63;22.38;;;8.50;97.70;;;;;;5014171;28;20030;-77
2022/03/16 04:37:35;;;;;;;30.90;23.27;;;8.50;97.80;;;;;;5013655;28;20096;-76
2022/03/16 04:40:01;;;;;;;32.30;22.33;;;8.50;97.70;;;;;;5013876;28;20053;-76
2022/03/16 04:42:26;;;;;;;31.15;22.23;;;8.40;97.90;;;;;;5014043;28;20021;-76
2022/03/16 04:44:52;;;;;;;31.05;22.52;;;8.40;97.90;;;;;;5014073;28;20473;-76
2022/03/16 04:47:17;;;;;;;35.88;22.77;;;8.40;98.10;;;;;;5013979;28;20026;-77
2022/03/16 04:49:43;;;;;;;30.52;23.08;;;8.40;98.20;;;;;;5013445;28;20053;-77
2022/03/16 04:52:09;;;;;;;31.50;22.70;;;8.30;98.10;;;;;;5013741;28;20037;-77
2022/03/16 04:54:34;;;;;;;34.45;22.85;;;8.30;98.10;;;;;;5013726;28;20491;-77
2022/03/16 04:57:00;;;;;;;30.25;22.20;;;8.20;98.20;;;;;;5013739;28;20033;-77
2022/03/16 04:59:25;;;;;;;30.98;21.80;;;8.20;98.30;;;;;;5013739;28;20037;-77
2022/03/16 05:01:51;;;;;;;29.15;22.00;;;8.10;98.40;;;;;;5013537;28;20076;-77
2022/03/16 05:04:17;;;;;;;33.17;22.35;;;8.10;98.40;;;;;;5013328;28;20030;-77
2022/03/16 05:06:42;;;;;;;31.55;20.40;;;8.10;98.30;;;;;;5013470;28;20050;-77
2022/03/16 05:09:08;;;;;;;33.22;21.17;;;8.20;98.50;;;;;;5013472;28;20427;-77
2022/03/16 05:11:35;;;;;;;27.58;20.27;;;8.10;98.40;;;;;;5013596;28;20028;-77
2022/03/16 05:14:01;;;;;;;26.55;20.48;;;8.20;98.40;;;;;;5013532;28;20109;-77
2022/03/16 05:16:27;;;;;;;27.92;20.60;;;8.20;98.30;;;;;;5013437;28;20484;-77
2022/03/16 05:18:52;;;;;;;25.50;18.67;;;8.20;98.20;;;;;;5013266;28;20026;-77
2022/03/16 05:21:18;;;;;;;27.73;19.90;;;8.20;98.20;;;;;;5013767;28;20108;-77
2022/03/16 05:23:44;;;;;;;26.40;18.83;;;8.20;98.10;;;;;;5013566;28;20026;-77
2022/03/16 05:26:09;;;;;;;28.95;19.95;;;8.20;98.10;;;;;;5013589;28;20045;-77
2022/03/16 05:28:35;;;;;;;24.75;18.40;;;8.10;98.20;;;;;;5013006;28;20026;-77
2022/03/16 05:31:01;;;;;;;28.00;20.73;;;8.10;98.10;;;;;;5013414;28;20029;-77
2022/03/16 05:33:27;;;;;;;29.52;20.50;;;8.10;98.10;;;;;;5013116;28;20113;-77
2022/03/16 05:35:52;;;;;;;28.42;20.08;;;8.10;98.20;;;;;;5013168;28;20524;-77
2022/03/16 05:38:18;;;;;;;27.30;19.98;;;8.00;98.20;;;;;;5013323;28;20025;-77
2022/03/16 05:40:44;;;;;;;27.05;20.27;;;8.00;98.40;;;;;;5013147;28;20049;-77
2022/03/16 05:43:11;;;;;;;28.80;20.77;;;8.00;98.30;;;;;;5013226;28;20120;-77
2022/03/16 05:45:37;;;;;;;26.77;19.20;;;8.00;98.30;;;;;;5013083;28;20477;-77
2022/03/16 05:48:03;;;;;;;25.98;19.02;;;8.00;98.40;;;;;;5013028;28;20058;-77
2022/03/16 05:50:29;;;;;;;31.67;21.17;;;8.00;98.40;;;;;;5014814;28;20052;-77
2022/03/16 05:53:00;;;;;;;28.45;20.38;;;7.90;98.40;;;;;;5016928;28;20384;-75
2022/03/16 05:55:26;;;;;;;30.98;21.15;;;7.90;98.50;;;;;;5016427;28;20105;-76
2022/03/16 05:57:52;;;;;;;33.17;22.38;;;7.90;98.60;;;;;;5016661;28;20038;-77
2022/03/16 06:00:20;;;;;;;27.25;20.63;;;7.90;98.60;;;;;;5016607;28;20022;-78
2022/03/16 06:02:48;;;;;;;29.15;23.00;;;7.90;99.00;;;;;;5016572;28;20397;-77
2022/03/16 06:05:14;;;;;;;30.45;22.05;;;7.90;99.10;;;;;;5016376;28;20053;-76
2022/03/16 06:07:41;;;;;;;33.67;23.92;;;7.90;99.20;;;;;;5016183;28;20069;-76
2022/03/16 06:10:17;;;;;;;27.15;20.38;;;7.90;99.00;;;;;;5016210;28;20026;-78
2022/03/16 06:12:53;;;;;;;31.98;22.17;;;7.90;99.10;;;;;;5016292;28;20033;-74
2022/03/16 06:15:19;;;;;;;27.40;19.13;;;8.10;99.70;;;;;;5016360;28;20034;-78
2022/03/16 06:17:44;;;;;;;31.73;22.42;;;8.20;99.70;;;;;;5016382;28;20018;-77
2022/03/16 06:20:13;;;;;;;28.52;19.55;;;8.30;99.70;;;;;;5015710;28;20038;-77
2022/03/16 06:22:39;;;;;;;32.08;22.88;;;8.40;99.80;;;;;;5015959;28;20037;-77
2022/03/16 06:25:05;;;;;;;32.97;22.90;;;8.50;99.20;;;;;;5016129;28;20030;-79
2022/03/16 06:27:30;;;;;;;31.25;22.58;;;8.50;99.00;;;;;;5015956;28;20071;-79
2022/03/16 06:29:59;;;;;;;33.55;22.55;;;8.50;98.90;;;;;;5016023;28;20097;-78
2022/03/16 06:32:24;;;;;;;32.80;22.33;;;8.60;98.80;;;;;;5015912;28;20030;-78
2022/03/16 06:34:50;;;;;;;27.73;20.17;;;8.60;98.90;;;;;;5016084;28;20164;-78
2022/03/16 06:37:15;;;;;;;28.67;20.52;;;8.60;98.70;;;;;;5015821;28;20080;-78
2022/03/16 06:39:42;;;;;;;28.92;21.98;;;8.70;98.70;;;;;;5016111;28;20100;-79
2022/03/16 06:42:08;;;;;;;31.30;22.25;;;8.60;98.30;;;;;;5015723;28;20108;-80
2022/03/16 06:44:35;;;;;;;26.63;20.80;;;8.60;98.40;;;;;;5015491;28;20030;-79
2022/03/16 06:47:00;;;;;;;28.42;21.63;;;8.70;98.20;;;;;;5015564;28;20042;-83
2022/03/16 06:49:26;;;;;;;26.02;19.85;;;8.60;98.40;;;;;;5016070;28;20084;-77
2022/03/16 06:51:51;;;;;;;31.95;23.17;;;8.80;98.50;;;;;;5015733;28;20022;-76
2022/03/16 06:54:17;;;;;;;31.75;21.95;;;8.70;97.80;;;;;;5015410;28;20040;-75
2022/03/16 06:56:43;;;;;;;30.55;22.45;;;8.70;98.00;;;;;;5002276;28;20077;-78
2022/03/16 06:59:08;;;;;;;31.23;22.15;;;8.70;97.70;;;;;;4994687;28;20019;-78
2022/03/16 07:01:34;;;;;;;30.00;22.35;;;8.60;97.90;;;;;;4994288;28;20101;-77
2022/03/16 07:03:59;;;;;;;30.30;20.50;;;8.60;98.20;;;;;;4994107;28;20493;-78
2022/03/16 07:06:25;;;;;;;30.88;21.42;;;8.60;98.40;;;;;;5001240;28;20081;-78
2022/03/16 07:08:51;;;;;;;34.72;22.33;;;8.60;98.30;;;;;;5014220;28;20349;-80
2022/03/16 07:11:17;;;;;;;32.28;20.67;;;8.60;98.30;;;;;;5014262;28;20038;-77
2022/03/16 07:14:30;;;;;;;29.13;21.75;;;8.70;98.40;;;;;;5014200;28;20037;-77
2022/03/16 07:16:32;;;;;;;29.52;22.40;;;8.70;98.20;;;;;;5012442;28;20026;-77
2022/03/16 07:18:58;;;;;;;34.63;22.42;;;8.60;97.80;;;;;;5013868;28;20397;-77
2022/03/16 07:21:24;;;;;;;32.17;24.00;;;8.60;97.80;;;;;;5013563;28;20038;-77
2022/03/16 07:23:50;;;;;;;32.60;22.60;;;8.60;97.90;;;;;;5014137;28;20117;-77
2022/03/16 07:26:15;;;;;;;30.23;21.10;;;8.60;98.10;;;;;;5014623;28;20029;-78
2022/03/16 07:28:41;;;;;;;32.30;23.05;;;8.50;98.10;;;;;;5014286;28;20029;-76
2022/03/16 07:31:08;;;;;;;31.20;21.92;;;8.50;98.00;;;;;;5013809;28;20026;-78
2022/03/16 07:33:34;;;;;;;30.00;22.20;;;8.60;98.00;;;;;;5013982;28;20097;-78
2022/03/16 07:36:01;;;;;;;30.63;22.98;;;8.70;98.00;;;;;;5014843;28;20029;-79
2022/03/16 07:38:26;;;;;;;29.83;21.83;;;8.70;97.70;;;;;;5013723;28;20026;-77
2022/03/16 07:40:52;;;;;;;28.00;20.38;;;8.80;97.60;;;;;;5013917;28;20503;-77
2022/03/16 07:43:17;;;;;;;28.15;21.08;;;8.90;97.60;;;;;;5015789;28;20026;-77
2022/03/16 07:45:43;;;;;;;28.17;21.23;;;9.00;97.40;;;;;;5014224;28;20504;-78
2022/03/16 07:48:09;;;;;;;26.50;19.92;;;9.20;97.50;;;;;;5014037;28;20030;-76
2022/03/16 07:50:35;;;;;;;27.02;19.15;;;9.30;97.20;;;;;;5013940;28;20017;-77
2022/03/16 07:53:00;;;;;;;28.58;20.33;;;9.40;96.90;;;;;;5013142;28;20069;-76
2022/03/16 07:55:27;;;;;;;28.98;19.65;;;9.50;96.30;;;;;;5013799;28;20033;-76
2022/03/16 07:57:54;;;;;;;28.33;20.58;;;9.60;96.00;;;;;;5012985;28;20485;-78
2022/03/16 08:00:20;;;;;;;23.10;17.88;;;9.60;95.90;;;;;;5013856;28;20042;-78
2022/03/16 08:02:46;;;;;;;24.63;18.35;;;9.70;95.80;;;;;;5013957;28;20136;-77
2022/03/16 08:05:12;;;;;;;25.17;18.13;;;9.90;95.40;;;;;;5014036;28;20465;-81
2022/03/16 08:07:38;;;;;;;22.30;16.25;;;9.90;95.00;;;;;;5013909;28;20050;-78
2022/03/16 08:10:04;;;;;;;27.35;17.15;;;10.00;95.00;;;;;;5014259;28;20026;-77
2022/03/16 08:12:30;;;;;;;23.02;18.02;;;10.10;95.00;;;;;;5013559;28;20184;-80
2022/03/16 08:14:56;;;;;;;27.63;18.20;;;10.20;94.80;;;;;;5013952;28;20109;-79
2022/03/16 08:17:22;;;;;;;23.02;16.42;;;10.30;94.90;;;;;;5014008;28;20054;-79
2022/03/16 08:19:48;;;;;;;25.98;17.75;;;10.40;94.80;;;;;;5013700;28;20596;-80
2022/03/16 08:22:23;;;;;;;25.30;17.45;;;10.60;94.50;;;;;;5014022;28;20061;-83
2022/03/16 08:24:51;;;;;;;24.23;16.77;;;10.70;94.10;;;;;;5013745;28;20018;-83
2022/03/16 08:27:16;;;;;;;23.73;16.40;;;10.80;93.90;;;;;;5014006;28;20057;-83
2022/03/16 08:29:42;;;;;;;21.35;15.30;;;10.90;93.80;;;;;;5013836;28;20022;-84
2022/03/16 08:32:08;;;;;;;22.15;15.57;;;11.00;93.70;;;;;;5013716;28;20030;-84
2022/03/16 08:34:33;;;;;;;19.73;14.60;;;11.10;93.00;;;;;;5014064;28;20033;-82
2022/03/16 08:37:00;;;;;;;24.08;14.45;;;11.10;93.30;;;;;;5013718;28;20366;-79
2022/03/16 08:39:26;;;;;;;17.20;13.38;;;11.30;92.60;;;;;;5013890;28;20029;-80
2022/03/16 08:41:52;;;;;;;19.67;13.52;;;11.30;92.40;;;;;;5013813;28;20026;-80
2022/03/16 08:44:17;;;;;;;16.05;12.80;;;11.40;92.30;;;;;;5013884;28;20022;-80
2022/03/16 08:46:43;;;;;;;16.90;12.98;;;11.40;91.40;;;;;;5013692;28;20030;-81
2022/03/16 08:49:09;;;;;;;21.30;12.05;;;11.30;91.70;;;;;;5017922;28;20055;-79
2022/03/16 08:51:34;;;;;;;14.52;10.60;;;11.30;91.80;;;;;;5021172;28;20037;-84
2022/03/16 08:54:00;;;;;;;16.65;10.40;;;11.30;90.50;;;;;;5013863;28;20042;-82
2022/03/16 08:56:25;;;;;;;12.77;9.48;;;11.40;90.50;;;;;;5016656;28;20017;-82
2022/03/16 08:58:51;;;;;;;22.15;11.20;;;11.30;90.30;;;;;;5032678;28;20079;-82
2022/03/16 09:01:17;;;;;;;16.02;10.02;;;11.40;90.20;;;;;;5020829;28;20032;-82
2022/03/16 09:03:42;;;;;;;16.85;10.13;;;11.30;90.10;;;;;;5013407;28;20096;-83
2022/03/16 09:06:08;;;;;;;15.07;10.93;;;11.40;90.20;;;;;;5011422;28;20129;-82
2022/03/16 09:08:34;;;;;;;19.20;11.25;;;11.50;90.00;;;;;;5008620;28;20037;-83
2022/03/16 09:11:00;;;;;;;19.27;10.18;;;11.40;89.70;;;;;;4995696;28;20113;-81
2022/03/16 09:13:25;;;;;;;14.32;9.70;;;11.40;90.00;;;;;;4993505;28;20130;-82
2022/03/16 09:15:53;;;;;;;12.88;10.02;;;11.50;90.20;;;;;;4994844;28;20103;-82
2022/03/16 09:18:19;;;;;;;20.38;9.60;;;11.60;89.30;;;;;;4997563;28;20030;-81
2022/03/16 09:20:46;;;;;;;15.57;10.85;;;11.60;89.30;;;;;;4999834;28;20121;-80
2022/03/16 09:23:12;;;;;;;14.32;10.38;;;11.70;88.70;;;;;;5000476;28;20475;-79
2022/03/16 09:25:41;;;;;;;17.00;10.73;;;11.80;88.90;;;;;;4998167;28;20045;-81
2022/03/16 09:28:08;;;;;;;18.20;10.55;;;11.80;88.40;;;;;;5000755;28;20034;-80
2022/03/16 09:30:34;;;;;;;14.80;9.55;;;11.80;88.40;;;;;;5011090;28;20033;-81
2022/03/16 09:33:00;;;;;;;14.10;10.23;;;11.80;88.40;;;;;;5004804;28;20034;-82
2022/03/16 09:35:27;;;;;;;13.75;9.90;;;11.90;87.70;;;;;;4997971;28;20022;-81
2022/03/16 09:37:58;;;;;;;17.17;9.73;;;12.00;87.20;;;;;;5016126;28;20477;-81
2022/03/16 09:40:24;;;;;;;18.67;9.75;;;12.10;85.90;;;;;;5016895;28;20029;-82
2022/03/16 09:42:52;;;;;;;12.65;9.18;;;12.10;85.90;;;;;;5017177;28;20034;-81
2022/03/16 09:45:20;;;;;;;12.70;9.38;;;12.20;85.60;;;;;;5017049;28;20033;-82
2022/03/16 09:47:49;;;;;;;13.38;9.20;;;12.30;85.90;;;;;;5016700;28;20026;-82
2022/03/16 09:50:19;;;;;;;13.88;9.93;;;12.40;86.30;;;;;;5000775;28;20019;-82
2022/03/16 09:52:46;;;;;;;11.85;9.25;;;12.60;86.10;;;;;;5008258;28;20121;-82
2022/03/16 09:55:13;;;;;;;15.75;9.73;;;12.80;86.20;;;;;;5004395;28;20014;-82
2022/03/16 09:57:39;;;;;;;12.38;9.27;;;12.90;85.30;;;;;;5002721;28;20030;-82
2022/03/16 10:00:06;;;;;;;13.95;10.15;;;13.00;84.10;;;;;;5002655;28;20072;-81
2022/03/16 10:02:31;;;;;;;14.00;9.63;;;13.10;82.60;;;;;;4999380;28;20030;-82
2022/03/16 10:04:57;;;;;;;14.55;9.02;;;13.10;81.70;;;;;;4998509;28;20373;-82
2022/03/16 10:07:32;;;;;;;14.10;9.90;;;13.10;81.60;;;;;;5010258;28;20044;-82
2022/03/16 10:15:26;;;;;;;13.02;9.63;;;13.40;81.40;;;;;;5018991;28;20121;-82
2022/03/16 10:18:03;;;;;;;16.33;10.35;;;13.60;80.50;;;;;;5024776;28;21407;-81
2022/03/16 10:20:37;;;;;;;14.65;9.27;;;13.70;80.30;;;;;;5020231;28;20030;-81
2022/03/16 10:23:13;;;;;;;17.42;10.27;;;13.90;80.40;;;;;;5012236;28;20075;-83
2022/03/16 10:25:46;;;;;;;14.95;10.15;;;14.10;79.60;;;;;;5014637;28;20045;-83
2022/03/16 10:28:16;;;;;;;16.95;10.30;;;14.20;78.70;;;;;;5014580;28;20066;-83
2022/03/16 10:30:52;;;;;;;13.05;9.30;;;14.30;78.90;;;;;;5014690;28;20023;-83
2022/03/16 10:33:19;;;;;;;15.88;10.05;;;14.40;77.90;;;;;;5018699;28;20045;-83
2022/03/16 10:35:57;;;;;;;16.45;10.68;;;14.50;76.50;;;;;;5020349;28;20351;-81
2022/03/16 10:38:24;;;;;;;14.70;9.70;;;14.50;75.60;;;;;;5016148;28;20106;-81
2022/03/16 10:40:50;;;;;;;12.73;9.73;;;14.40;77.10;;;;;;5018156;28;20030;-80
2022/03/16 10:49:00;;;;;;;16.88;9.77;;;14.90;77.00;;;;;;5017047;28;20093;-80
2022/03/16 10:51:26;;;;;;;17.70;9.95;;;15.00;75.40;;;;;;5017292;28;20026;-79
2022/03/16 10:53:52;;;;;;;13.60;10.18;;;15.00;73.60;;;;;;5024699;28;20056;-81
2022/03/16 10:56:19;;;;;;;13.48;9.15;;;15.20;74.20;;;;;;5022611;28;20104;-81
2022/03/16 10:58:47;;;;;;;11.32;9.05;;;15.30;73.00;;;;;;5021017;28;20104;-80
2022/03/16 11:01:15;;;;;;;15.55;9.35;;;15.50;72.80;;;;;;5014271;28;20037;-81
2022/03/16 11:03:44;;;;;;;12.55;8.80;;;15.70;71.80;;;;;;5022053;28;20030;-82
2022/03/16 11:06:10;;;;;;;12.32;9.57;;;15.70;70.20;;;;;;5020860;28;20077;-84
2022/03/16 11:08:37;;;;;;;13.00;9.65;;;15.70;69.60;;;;;;5006327;28;20029;-79
2022/03/16 11:13:28;;;;;;;14.88;10.48;;;15.80;69.90;;;;;;4997408;28;20033;-80
2022/03/16 11:13:54;;;;;;;19.27;9.77;;;15.90;71.00;;;;;;5005746;28;20042;-78
2022/03/16 11:16:21;;;;;;;13.05;9.77;;;15.90;69.40;;;;;;5009657;28;20026;-78
2022/03/16 11:18:50;;;;;;;13.38;8.93;;;16.00;69.40;;;;;;5010386;28;20473;-79
2022/03/16 11:21:23;;;;;;;14.73;9.55;;;16.00;69.00;;;;;;5006352;28;20454;-78
2022/03/16 11:27:09;;;;;;;14.95;9.32;;;16.10;68.10;;;;;;5004170;28;20048;-79
2022/03/16 11:30:02;;;;;;;12.40;8.20;;;16.30;68.10;;;;;;4997348;28;20034;-78
2022/03/16 11:32:46;;;;;;;15.60;8.80;;;16.40;67.10;;;;;;4995050;28;20053;-79
2022/03/16 11:35:16;;;;;;;10.57;8.35;;;16.40;64.50;;;;;;4993946;28;20046;-78
2022/03/16 11:37:44;;;;;;;12.55;7.72;;;16.30;62.70;;;;;;4990097;28;20026;-79
2022/03/16 11:40:20;;;;;;;9.77;7.65;;;16.40;61.90;;;;;;4999657;28;20030;-79
2022/03/16 11:43:04;;;;;;;13.77;8.27;;;16.40;61.70;;;;;;4983877;28;20053;-78
2022/03/16 11:45:42;;;;;;;8.38;7.07;;;16.50;60.80;;;;;;5011967;28;20133;-79
2022/03/16 11:51:09;;;;;;;12.18;7.38;;;16.40;61.50;;;;;;4993122;28;20393;-79
2022/03/16 11:53:51;;;;;;;10.88;7.05;;;16.30;60.30;;;;;;4998399;28;20034;-78
2022/03/16 11:56:42;;;;;;;9.03;6.87;;;16.30;60.30;;;;;;5012330;28;20030;-78
2022/03/16 11:59:16;;;;;;;8.77;7.57;;;16.20;60.10;;;;;;5011378;28;20288;-77
2022/03/16 12:01:48;;;;;;;10.95;6.63;;;16.30;60.30;;;;;;4997951;28;20489;-78
2022/03/16 12:04:19;;;;;;;10.40;6.65;;;16.30;58.90;;;;;;5014267;28;20033;-79
2022/03/16 12:06:51;;;;;;;6.80;5.90;;;16.30;58.50;;;;;;5013990;28;20100;-79
2022/03/16 12:09:33;;;;;;;17.52;7.85;;;16.20;59.40;;;;;;5070458;28;20395;-79
2022/03/16 12:15:19;;;;;;;9.52;7.35;;;16.20;60.20;;;;;;5070390;28;20497;-79
2022/03/16 12:17:56;;;;;;;13.07;8.18;;;16.40;60.60;;;;;;5070264;28;20028;-79
2022/03/16 12:20:22;;;;;;;8.80;7.10;;;16.60;61.10;;;;;;5070410;28;20511;-80
2022/03/16 12:22:50;;;;;;;9.63;7.50;;;16.70;61.70;;;;;;5070355;28;20024;-80
2022/03/16 12:25:25;;;;;;;10.63;6.97;;;16.70;60.40;;;;;;5070352;28;20039;-82
2022/03/16 12:30:43;;;;;;;9.77;6.97;;;16.60;61.30;;;;;;5070259;28;20072;-74
2022/03/16 12:33:22;;;;;;;10.38;6.38;;;16.70;61.50;;;;;;5078235;28;20017;-73
2022/03/16 12:36:12;;;;;;;9.93;7.38;;;16.90;61.80;;;;;;5072165;28;20029;-73
2022/03/16 12:38:43;;;;;;;12.45;6.80;;;16.90;61.00;;;;;;5069571;28;20029;-74
2022/03/16 12:44:01;;;;;;;8.88;6.65;;;17.10;60.10;;;;;;5068415;28;20077;-74
2022/03/16 12:46:33;;;;;;;12.50;7.05;;;17.10;59.40;;;;;;5068089;28;20032;-74
2022/03/16 12:49:07;;;;;;;11.13;6.20;;;17.20;59.20;;;;;;5067054;28;20036;-76
2022/03/16 12:51:40;;;;;;;15.85;6.38;;;17.20;58.60;;;;;;5066190;28;20021;-76
2022/03/16 12:54:07;;;;;;;10.40;6.35;;;17.10;58.40;;;;;;5067941;28;20033;-79
2022/03/16 12:56:46;;;;;;;8.95;6.35;;;17.00;58.70;;;;;;5068051;28;20037;-79
2022/03/16 12:59:12;;;;;;;9.13;6.57;;;16.80;58.60;;;;;;5068056;28;20021;-85
2022/03/16 13:01:39;;;;;;;9.88;6.80;;;16.70;58.80;;;;;;5067088;28;20020;-81
2022/03/16 13:04:06;;;;;;;8.20;6.60;;;16.50;59.20;;;;;;5067180;28;20021;-81